sensor_id;sensor_type;location;lat;lon;timestamp;temperature;humidity
17762;DHT22;9005;48.838;10.112;2023-02-01T00:00:11;2.20;99.90
17762;DHT22;9005;48.838;10.112;2023-02-01T00:02:38;2.30;99.90
17762;DHT22;9005;48.838;10.112;2023-02-01T00:05:07;2.30;99.90
17762;DHT22;9005;48.838;10.112;2023-02-01T00:07:33;2.30;99.90
17762;DHT22;9005;48.838;10.112;2023-02-01T00:10:00;2.30;99.90
17762;DHT22;9005;48.838;10.112;2023-02-01T00:12:29;2.30;99.90
17762;DHT22;9005;48.838;10.112;2023-02-01T00:14:57;2.40;99.90
17762;DHT22;9005;48.838;10.112;2023-02-01T00:17:24;2.40;99.90
17762;DHT22;9005;48.838;10.112;2023-02-01T00:19:51;2.40;99.90
17762;DHT22;9005;48.838;10.112;2023-02-01T00:22:17;2.40;99.90
17762;DHT22;9005;48.838;10.112;2023-02-01T00:24:44;2.40;99.90
17762;DHT22;9005;48.838;10.112;2023-02-01T00:27:11;2.40;99.90
17762;DHT22;9005;48.838;10.112;2023-02-01T00:29:43;2.40;99.90
17762;DHT22;9005;48.838;10.112;2023-02-01T00:32:11;2.40;99.90
17762;DHT22;9005;48.838;10.112;2023-02-01T00:34:38;2.50;99.90
17762;DHT22;9005;48.838;10.112;2023-02-01T00:37:05;2.40;99.90
17762;DHT22;9005;48.838;10.112;2023-02-01T00:39:33;2.50;99.90
17762;DHT22;9005;48.838;10.112;2023-02-01T00:42:00;2.50;99.90
17762;DHT22;9005;48.838;10.112;2023-02-01T00:44:28;2.50;99.90
17762;DHT22;9005;48.838;10.112;2023-02-01T00:46:58;2.50;99.90
17762;DHT22;9005;48.838;10.112;2023-02-01T00:49:26;2.50;99.90
17762;DHT22;9005;48.838;10.112;2023-02-01T00:51:53;2.60;99.90
17762;DHT22;9005;48.838;10.112;2023-02-01T00:54:20;2.50;99.90
17762;DHT22;9005;48.838;10.112;2023-02-01T00:56:47;2.50;99.90
17762;DHT22;9005;48.838;10.112;2023-02-01T00:59:14;2.60;99.90
17762;DHT22;9005;48.838;10.112;2023-02-01T01:01:41;2.60;99.90
17762;DHT22;9005;48.838;10.112;2023-02-01T01:04:07;2.60;99.90
17762;DHT22;9005;48.838;10.112;2023-02-01T01:06:35;2.60;99.90
17762;DHT22;9005;48.838;10.112;2023-02-01T01:09:04;2.70;99.90
17762;DHT22;9005;48.838;10.112;2023-02-01T01:11:33;2.70;99.90
17762;DHT22;9005;48.838;10.112;2023-02-01T01:14:00;2.70;99.90
17762;DHT22;9005;48.838;10.112;2023-02-01T01:16:28;2.70;99.90
17762;DHT22;9005;48.838;10.112;2023-02-01T01:18:56;2.70;99.90
17762;DHT22;9005;48.838;10.112;2023-02-01T01:21:23;2.70;99.90
17762;DHT22;9005;48.838;10.112;2023-02-01T01:23:52;2.70;99.90
17762;DHT22;9005;48.838;10.112;2023-02-01T01:26:20;2.70;99.90
17762;DHT22;9005;48.838;10.112;2023-02-01T01:28:47;2.70;99.90
17762;DHT22;9005;48.838;10.112;2023-02-01T01:31:16;3.20;99.90
17762;DHT22;9005;48.838;10.112;2023-02-01T01:33:43;2.80;99.90
17762;DHT22;9005;48.838;10.112;2023-02-01T01:36:11;2.80;99.90
17762;DHT22;9005;48.838;10.112;2023-02-01T01:38:38;2.80;99.90
17762;DHT22;9005;48.838;10.112;2023-02-01T01:41:08;2.80;99.90
17762;DHT22;9005;48.838;10.112;2023-02-01T01:43:48;2.70;99.90
17762;DHT22;9005;48.838;10.112;2023-02-01T01:46:16;2.70;99.90
17762;DHT22;9005;48.838;10.112;2023-02-01T01:48:44;2.70;99.90
17762;DHT22;9005;48.838;10.112;2023-02-01T01:51:13;2.60;99.90
17762;DHT22;9005;48.838;10.112;2023-02-01T01:53:43;2.60;99.90
17762;DHT22;9005;48.838;10.112;2023-02-01T01:56:13;2.60;99.90
17762;DHT22;9005;48.838;10.112;2023-02-01T01:58:40;2.60;99.90
17762;DHT22;9005;48.838;10.112;2023-02-01T02:01:08;2.60;99.90
17762;DHT22;9005;48.838;10.112;2023-02-01T02:03:37;2.60;99.90
17762;DHT22;9005;48.838;10.112;2023-02-01T02:06:11;2.70;99.90
17762;DHT22;9005;48.838;10.112;2023-02-01T02:08:41;2.70;99.90
17762;DHT22;9005;48.838;10.112;2023-02-01T02:11:07;2.80;99.90
17762;DHT22;9005;48.838;10.112;2023-02-01T02:13:40;2.80;99.90
17762;DHT22;9005;48.838;10.112;2023-02-01T02:19:16;2.80;99.90
17762;DHT22;9005;48.838;10.112;2023-02-01T02:21:56;2.80;99.90
17762;DHT22;9005;48.838;10.112;2023-02-01T02:25:01;2.80;99.90
17762;DHT22;9005;48.838;10.112;2023-02-01T02:27:40;2.80;99.90
17762;DHT22;9005;48.838;10.112;2023-02-01T02:30:36;2.80;99.90
17762;DHT22;9005;48.838;10.112;2023-02-01T02:33:39;2.80;99.90
17762;DHT22;9005;48.838;10.112;2023-02-01T02:36:10;2.80;99.90
17762;DHT22;9005;48.838;10.112;2023-02-01T02:38:47;2.80;99.90
17762;DHT22;9005;48.838;10.112;2023-02-01T02:41:19;2.80;99.90
17762;DHT22;9005;48.838;10.112;2023-02-01T02:44:08;2.80;99.90
17762;DHT22;9005;48.838;10.112;2023-02-01T02:46:59;2.80;99.90
17762;DHT22;9005;48.838;10.112;2023-02-01T02:49:51;2.80;99.90
17762;DHT22;9005;48.838;10.112;2023-02-01T02:52:37;2.80;99.90
17762;DHT22;9005;48.838;10.112;2023-02-01T02:55:23;2.90;99.90
17762;DHT22;9005;48.838;10.112;2023-02-01T02:57:51;2.90;99.90
17762;DHT22;9005;48.838;10.112;2023-02-01T03:00:37;2.90;99.90
17762;DHT22;9005;48.838;10.112;2023-02-01T03:03:22;2.90;99.90
17762;DHT22;9005;48.838;10.112;2023-02-01T03:06:12;2.90;99.90
17762;DHT22;9005;48.838;10.112;2023-02-01T03:08:40;2.90;99.90
17762;DHT22;9005;48.838;10.112;2023-02-01T03:11:12;2.90;99.90
17762;DHT22;9005;48.838;10.112;2023-02-01T03:13:44;2.90;99.90
17762;DHT22;9005;48.838;10.112;2023-02-01T03:16:14;2.90;99.90
17762;DHT22;9005;48.838;10.112;2023-02-01T03:18:46;3.00;99.90
17762;DHT22;9005;48.838;10.112;2023-02-01T03:21:21;3.10;99.90
17762;DHT22;9005;48.838;10.112;2023-02-01T03:23:50;3.10;99.90
17762;DHT22;9005;48.838;10.112;2023-02-01T03:26:20;3.10;99.90
17762;DHT22;9005;48.838;10.112;2023-02-01T03:28:51;3.10;99.90
17762;DHT22;9005;48.838;10.112;2023-02-01T03:31:19;3.00;99.90
17762;DHT22;9005;48.838;10.112;2023-02-01T03:33:46;3.00;99.90
17762;DHT22;9005;48.838;10.112;2023-02-01T03:36:20;3.00;99.90
17762;DHT22;9005;48.838;10.112;2023-02-01T03:38:57;3.00;99.90
17762;DHT22;9005;48.838;10.112;2023-02-01T03:41:28;3.10;99.90
17762;DHT22;9005;48.838;10.112;2023-02-01T03:44:06;3.10;99.90
17762;DHT22;9005;48.838;10.112;2023-02-01T03:46:38;3.10;99.90
17762;DHT22;9005;48.838;10.112;2023-02-01T03:49:09;3.10;99.90
17762;DHT22;9005;48.838;10.112;2023-02-01T03:51:39;3.20;99.90
17762;DHT22;9005;48.838;10.112;2023-02-01T03:54:09;3.20;99.90
17762;DHT22;9005;48.838;10.112;2023-02-01T03:56:38;3.30;99.90
17762;DHT22;9005;48.838;10.112;2023-02-01T03:59:05;3.30;99.90
17762;DHT22;9005;48.838;10.112;2023-02-01T04:01:32;3.30;99.90
17762;DHT22;9005;48.838;10.112;2023-02-01T04:03:59;3.40;99.90
17762;DHT22;9005;48.838;10.112;2023-02-01T04:06:26;3.40;99.90
17762;DHT22;9005;48.838;10.112;2023-02-01T04:08:54;3.50;99.90
17762;DHT22;9005;48.838;10.112;2023-02-01T04:11:20;3.50;99.90
17762;DHT22;9005;48.838;10.112;2023-02-01T04:16:14;3.60;99.90
17762;DHT22;9005;48.838;10.112;2023-02-01T04:18:41;3.60;99.90
17762;DHT22;9005;48.838;10.112;2023-02-01T04:21:08;3.60;99.90
17762;DHT22;9005;48.838;10.112;2023-02-01T04:23:34;3.50;99.90
17762;DHT22;9005;48.838;10.112;2023-02-01T04:26:04;4.00;99.90
17762;DHT22;9005;48.838;10.112;2023-02-01T04:28:31;3.60;99.90
17762;DHT22;9005;48.838;10.112;2023-02-01T04:30:58;3.60;99.90
17762;DHT22;9005;48.838;10.112;2023-02-01T04:33:24;3.60;99.90
17762;DHT22;9005;48.838;10.112;2023-02-01T04:35:51;3.60;99.90
17762;DHT22;9005;48.838;10.112;2023-02-01T04:38:18;3.60;99.90
17762;DHT22;9005;48.838;10.112;2023-02-01T04:40:47;3.60;99.90
17762;DHT22;9005;48.838;10.112;2023-02-01T04:43:15;3.50;99.90
17762;DHT22;9005;48.838;10.112;2023-02-01T04:45:46;3.60;99.90
17762;DHT22;9005;48.838;10.112;2023-02-01T04:48:12;3.60;99.90
17762;DHT22;9005;48.838;10.112;2023-02-01T04:50:39;3.60;99.90
17762;DHT22;9005;48.838;10.112;2023-02-01T04:53:06;3.60;99.90
17762;DHT22;9005;48.838;10.112;2023-02-01T04:55:32;3.60;99.90
17762;DHT22;9005;48.838;10.112;2023-02-01T04:57:59;3.60;99.90
17762;DHT22;9005;48.838;10.112;2023-02-01T05:00:27;3.60;99.90
17762;DHT22;9005;48.838;10.112;2023-02-01T05:02:54;3.60;99.90
17762;DHT22;9005;48.838;10.112;2023-02-01T05:05:21;3.50;99.90
17762;DHT22;9005;48.838;10.112;2023-02-01T05:07:47;3.50;99.90
17762;DHT22;9005;48.838;10.112;2023-02-01T05:10:15;3.50;99.90
17762;DHT22;9005;48.838;10.112;2023-02-01T05:12:43;3.50;99.90
17762;DHT22;9005;48.838;10.112;2023-02-01T05:15:28;3.50;99.90
17762;DHT22;9005;48.838;10.112;2023-02-01T05:17:55;3.60;99.90
17762;DHT22;9005;48.838;10.112;2023-02-01T05:20:22;3.60;99.90
17762;DHT22;9005;48.838;10.112;2023-02-01T05:22:49;3.60;99.90
17762;DHT22;9005;48.838;10.112;2023-02-01T05:25:16;3.60;99.90
17762;DHT22;9005;48.838;10.112;2023-02-01T05:27:44;3.60;99.90
17762;DHT22;9005;48.838;10.112;2023-02-01T05:30:12;3.50;99.90
17762;DHT22;9005;48.838;10.112;2023-02-01T05:32:40;3.60;99.90
17762;DHT22;9005;48.838;10.112;2023-02-01T05:35:08;3.60;99.90
17762;DHT22;9005;48.838;10.112;2023-02-01T05:37:34;3.60;99.90
17762;DHT22;9005;48.838;10.112;2023-02-01T05:40:01;3.60;99.90
17762;DHT22;9005;48.838;10.112;2023-02-01T05:42:28;3.60;99.90
17762;DHT22;9005;48.838;10.112;2023-02-01T05:44:55;3.60;99.90
17762;DHT22;9005;48.838;10.112;2023-02-01T05:47:21;3.60;99.90
17762;DHT22;9005;48.838;10.112;2023-02-01T05:49:49;3.60;99.90
17762;DHT22;9005;48.838;10.112;2023-02-01T05:52:16;3.60;99.90
17762;DHT22;9005;48.838;10.112;2023-02-01T05:54:44;3.60;99.90
17762;DHT22;9005;48.838;10.112;2023-02-01T05:57:11;3.60;99.90
17762;DHT22;9005;48.838;10.112;2023-02-01T05:59:38;3.70;99.90
17762;DHT22;9005;48.838;10.112;2023-02-01T06:02:06;3.70;99.90
17762;DHT22;9005;48.838;10.112;2023-02-01T06:04:33;3.70;99.90
17762;DHT22;9005;48.838;10.112;2023-02-01T06:07:02;3.70;99.90
17762;DHT22;9005;48.838;10.112;2023-02-01T06:09:29;3.70;99.90
17762;DHT22;9005;48.838;10.112;2023-02-01T06:11:55;3.70;99.90
17762;DHT22;9005;48.838;10.112;2023-02-01T06:14:23;3.70;99.90
17762;DHT22;9005;48.838;10.112;2023-02-01T06:16:50;3.70;99.90
17762;DHT22;9005;48.838;10.112;2023-02-01T06:19:16;3.70;99.90
17762;DHT22;9005;48.838;10.112;2023-02-01T06:21:43;3.70;99.90
17762;DHT22;9005;48.838;10.112;2023-02-01T06:24:11;3.60;99.90
17762;DHT22;9005;48.838;10.112;2023-02-01T06:26:38;3.60;99.90
17762;DHT22;9005;48.838;10.112;2023-02-01T06:29:05;3.60;99.90
17762;DHT22;9005;48.838;10.112;2023-02-01T06:31:33;3.60;99.90
17762;DHT22;9005;48.838;10.112;2023-02-01T06:33:59;3.60;99.90
17762;DHT22;9005;48.838;10.112;2023-02-01T06:36:27;3.60;99.90
17762;DHT22;9005;48.838;10.112;2023-02-01T06:38:53;3.60;99.90
17762;DHT22;9005;48.838;10.112;2023-02-01T06:41:23;3.60;99.90
17762;DHT22;9005;48.838;10.112;2023-02-01T06:43:50;3.60;99.90
17762;DHT22;9005;48.838;10.112;2023-02-01T06:46:17;3.60;99.90
17762;DHT22;9005;48.838;10.112;2023-02-01T06:48:44;3.60;99.90
17762;DHT22;9005;48.838;10.112;2023-02-01T06:51:22;3.60;99.90
17762;DHT22;9005;48.838;10.112;2023-02-01T06:53:49;3.60;99.90
17762;DHT22;9005;48.838;10.112;2023-02-01T06:56:16;3.70;99.90
17762;DHT22;9005;48.838;10.112;2023-02-01T06:58:44;3.60;99.90
17762;DHT22;9005;48.838;10.112;2023-02-01T07:01:11;3.70;99.90
17762;DHT22;9005;48.838;10.112;2023-02-01T07:03:38;3.70;99.90
17762;DHT22;9005;48.838;10.112;2023-02-01T07:06:06;3.70;99.90
17762;DHT22;9005;48.838;10.112;2023-02-01T07:08:34;3.70;99.90
17762;DHT22;9005;48.838;10.112;2023-02-01T07:11:02;3.70;99.90
17762;DHT22;9005;48.838;10.112;2023-02-01T07:13:29;3.70;99.90
17762;DHT22;9005;48.838;10.112;2023-02-01T07:15:59;3.60;99.90
17762;DHT22;9005;48.838;10.112;2023-02-01T07:18:26;3.60;99.90
17762;DHT22;9005;48.838;10.112;2023-02-01T07:20:53;3.60;99.90
17762;DHT22;9005;48.838;10.112;2023-02-01T07:23:20;3.60;99.90
17762;DHT22;9005;48.838;10.112;2023-02-01T07:25:46;3.50;99.90
17762;DHT22;9005;48.838;10.112;2023-02-01T07:28:14;3.50;99.90
17762;DHT22;9005;48.838;10.112;2023-02-01T07:30:40;3.50;99.90
17762;DHT22;9005;48.838;10.112;2023-02-01T07:33:09;3.40;99.90
17762;DHT22;9005;48.838;10.112;2023-02-01T07:35:35;3.40;99.90
17762;DHT22;9005;48.838;10.112;2023-02-01T07:38:02;3.40;99.90
17762;DHT22;9005;48.838;10.112;2023-02-01T07:40:29;3.30;99.90
17762;DHT22;9005;48.838;10.112;2023-02-01T07:42:56;3.20;99.90
17762;DHT22;9005;48.838;10.112;2023-02-01T07:45:23;3.10;99.90
17762;DHT22;9005;48.838;10.112;2023-02-01T07:47:52;3.00;99.90
17762;DHT22;9005;48.838;10.112;2023-02-01T07:50:20;3.00;99.90
17762;DHT22;9005;48.838;10.112;2023-02-01T07:52:47;3.00;99.90
17762;DHT22;9005;48.838;10.112;2023-02-01T07:55:14;3.00;99.90
17762;DHT22;9005;48.838;10.112;2023-02-01T07:57:40;3.00;99.90
17762;DHT22;9005;48.838;10.112;2023-02-01T08:00:08;2.90;99.90
17762;DHT22;9005;48.838;10.112;2023-02-01T08:02:52;3.00;99.90
17762;DHT22;9005;48.838;10.112;2023-02-01T08:05:20;3.00;99.90
17762;DHT22;9005;48.838;10.112;2023-02-01T08:07:48;3.00;99.90
17762;DHT22;9005;48.838;10.112;2023-02-01T08:10:16;3.00;99.90
17762;DHT22;9005;48.838;10.112;2023-02-01T08:12:43;3.10;99.90
17762;DHT22;9005;48.838;10.112;2023-02-01T08:15:13;3.10;99.90
17762;DHT22;9005;48.838;10.112;2023-02-01T08:22:36;3.20;99.90
17762;DHT22;9005;48.838;10.112;2023-02-01T08:25:04;3.10;99.90
17762;DHT22;9005;48.838;10.112;2023-02-01T08:27:32;3.00;99.90
17762;DHT22;9005;48.838;10.112;2023-02-01T08:30:00;3.00;99.90
17762;DHT22;9005;48.838;10.112;2023-02-01T08:32:27;3.00;99.90
17762;DHT22;9005;48.838;10.112;2023-02-01T08:34:54;3.00;99.90
17762;DHT22;9005;48.838;10.112;2023-02-01T08:37:20;3.00;99.90
17762;DHT22;9005;48.838;10.112;2023-02-01T08:39:49;3.00;99.90
17762;DHT22;9005;48.838;10.112;2023-02-01T08:42:16;3.00;99.90
17762;DHT22;9005;48.838;10.112;2023-02-01T08:45:00;3.00;99.90
17762;DHT22;9005;48.838;10.112;2023-02-01T08:47:27;2.90;99.90
17762;DHT22;9005;48.838;10.112;2023-02-01T08:49:54;2.90;99.90
17762;DHT22;9005;48.838;10.112;2023-02-01T08:52:21;2.90;99.90
17762;DHT22;9005;48.838;10.112;2023-02-01T08:54:49;2.90;99.90
17762;DHT22;9005;48.838;10.112;2023-02-01T08:57:16;2.90;99.90
17762;DHT22;9005;48.838;10.112;2023-02-01T08:59:43;2.90;99.90
17762;DHT22;9005;48.838;10.112;2023-02-01T09:02:12;2.90;99.90
17762;DHT22;9005;48.838;10.112;2023-02-01T09:04:39;2.90;99.90
17762;DHT22;9005;48.838;10.112;2023-02-01T09:07:06;2.90;99.90
17762;DHT22;9005;48.838;10.112;2023-02-01T09:09:33;2.80;99.90
17762;DHT22;9005;48.838;10.112;2023-02-01T09:12:02;2.80;99.90
17762;DHT22;9005;48.838;10.112;2023-02-01T09:14:29;2.80;99.90
17762;DHT22;9005;48.838;10.112;2023-02-01T09:16:55;2.90;99.90
17762;DHT22;9005;48.838;10.112;2023-02-01T09:19:22;2.90;99.90
17762;DHT22;9005;48.838;10.112;2023-02-01T09:21:49;2.90;99.90
17762;DHT22;9005;48.838;10.112;2023-02-01T09:24:16;3.00;99.90
17762;DHT22;9005;48.838;10.112;2023-02-01T09:26:43;3.00;99.90
17762;DHT22;9005;48.838;10.112;2023-02-01T09:29:11;3.10;99.90
17762;DHT22;9005;48.838;10.112;2023-02-01T09:31:39;3.10;99.90
17762;DHT22;9005;48.838;10.112;2023-02-01T09:34:06;3.20;99.90
17762;DHT22;9005;48.838;10.112;2023-02-01T09:36:33;3.20;99.90
17762;DHT22;9005;48.838;10.112;2023-02-01T09:39:01;3.30;99.90
17762;DHT22;9005;48.838;10.112;2023-02-01T09:41:38;3.30;99.90
17762;DHT22;9005;48.838;10.112;2023-02-01T09:44:18;3.30;99.90
17762;DHT22;9005;48.838;10.112;2023-02-01T09:46:47;3.40;99.90
17762;DHT22;9005;48.838;10.112;2023-02-01T09:49:22;3.40;99.90
17762;DHT22;9005;48.838;10.112;2023-02-01T09:51:51;3.40;99.90
17762;DHT22;9005;48.838;10.112;2023-02-01T09:54:20;3.40;99.90
17762;DHT22;9005;48.838;10.112;2023-02-01T09:56:52;3.40;99.90
17762;DHT22;9005;48.838;10.112;2023-02-01T09:59:31;3.50;99.90
17762;DHT22;9005;48.838;10.112;2023-02-01T10:02:01;3.50;99.90
17762;DHT22;9005;48.838;10.112;2023-02-01T10:04:30;3.60;99.90
17762;DHT22;9005;48.838;10.112;2023-02-01T10:07:06;3.60;99.90
17762;DHT22;9005;48.838;10.112;2023-02-01T10:09:44;3.60;99.90
17762;DHT22;9005;48.838;10.112;2023-02-01T10:12:34;3.70;99.90
17762;DHT22;9005;48.838;10.112;2023-02-01T10:15:19;3.70;99.90
17762;DHT22;9005;48.838;10.112;2023-02-01T10:17:56;3.80;99.90
17762;DHT22;9005;48.838;10.112;2023-02-01T10:20:44;3.80;99.90
17762;DHT22;9005;48.838;10.112;2023-02-01T10:23:26;3.80;99.90
17762;DHT22;9005;48.838;10.112;2023-02-01T10:25:55;3.70;99.90
17762;DHT22;9005;48.838;10.112;2023-02-01T10:28:23;3.60;99.90
17762;DHT22;9005;48.838;10.112;2023-02-01T10:30:56;3.60;99.90
17762;DHT22;9005;48.838;10.112;2023-02-01T10:33:25;3.60;99.90
17762;DHT22;9005;48.838;10.112;2023-02-01T10:35:58;3.60;99.90
17762;DHT22;9005;48.838;10.112;2023-02-01T10:38:30;3.60;99.90
17762;DHT22;9005;48.838;10.112;2023-02-01T10:41:08;3.50;99.90
17762;DHT22;9005;48.838;10.112;2023-02-01T10:43:38;3.40;99.90
17762;DHT22;9005;48.838;10.112;2023-02-01T10:46:07;3.40;99.90
17762;DHT22;9005;48.838;10.112;2023-02-01T10:48:35;3.30;99.90
17762;DHT22;9005;48.838;10.112;2023-02-01T10:51:05;3.40;99.90
17762;DHT22;9005;48.838;10.112;2023-02-01T10:53:35;3.50;99.90
17762;DHT22;9005;48.838;10.112;2023-02-01T10:56:06;3.50;99.90
17762;DHT22;9005;48.838;10.112;2023-02-01T10:58:36;3.70;99.90
17762;DHT22;9005;48.838;10.112;2023-02-01T11:01:16;3.80;99.90
17762;DHT22;9005;48.838;10.112;2023-02-01T11:03:44;3.80;99.90
17762;DHT22;9005;48.838;10.112;2023-02-01T11:06:27;3.70;99.90
17762;DHT22;9005;48.838;10.112;2023-02-01T11:08:56;3.70;99.90
17762;DHT22;9005;48.838;10.112;2023-02-01T11:11:24;3.70;99.90
17762;DHT22;9005;48.838;10.112;2023-02-01T11:13:53;3.70;99.90
17762;DHT22;9005;48.838;10.112;2023-02-01T11:16:29;3.60;99.90
17762;DHT22;9005;48.838;10.112;2023-02-01T11:18:58;3.60;99.90
17762;DHT22;9005;48.838;10.112;2023-02-01T11:21:25;3.60;99.90
17762;DHT22;9005;48.838;10.112;2023-02-01T11:23:52;3.60;99.90
17762;DHT22;9005;48.838;10.112;2023-02-01T11:26:22;3.70;99.90
17762;DHT22;9005;48.838;10.112;2023-02-01T11:28:53;3.70;99.90
17762;DHT22;9005;48.838;10.112;2023-02-01T11:31:24;3.70;99.90
17762;DHT22;9005;48.838;10.112;2023-02-01T11:33:55;3.80;99.90
17762;DHT22;9005;48.838;10.112;2023-02-01T11:36:25;3.80;99.90
17762;DHT22;9005;48.838;10.112;2023-02-01T11:38:54;3.80;99.90
17762;DHT22;9005;48.838;10.112;2023-02-01T11:41:34;3.80;99.90
17762;DHT22;9005;48.838;10.112;2023-02-01T11:44:05;3.90;99.90
17762;DHT22;9005;48.838;10.112;2023-02-01T11:46:43;3.80;99.90
17762;DHT22;9005;48.838;10.112;2023-02-01T11:49:21;3.80;99.90
17762;DHT22;9005;48.838;10.112;2023-02-01T11:52:05;3.80;99.90
17762;DHT22;9005;48.838;10.112;2023-02-01T11:54:48;3.70;99.90
17762;DHT22;9005;48.838;10.112;2023-02-01T11:57:31;3.70;99.90
17762;DHT22;9005;48.838;10.112;2023-02-01T12:00:23;3.70;99.90
17762;DHT22;9005;48.838;10.112;2023-02-01T12:03:08;3.60;99.90
17762;DHT22;9005;48.838;10.112;2023-02-01T12:05:49;3.60;99.90
17762;DHT22;9005;48.838;10.112;2023-02-01T12:08:49;3.60;99.90
17762;DHT22;9005;48.838;10.112;2023-02-01T12:11:32;3.60;99.90
17762;DHT22;9005;48.838;10.112;2023-02-01T12:14:09;3.60;99.90
17762;DHT22;9005;48.838;10.112;2023-02-01T12:16:55;3.60;99.90
17762;DHT22;9005;48.838;10.112;2023-02-01T12:19:33;3.60;99.90
17762;DHT22;9005;48.838;10.112;2023-02-01T12:22:25;3.70;99.90
17762;DHT22;9005;48.838;10.112;2023-02-01T12:25:12;3.70;99.90
17762;DHT22;9005;48.838;10.112;2023-02-01T12:28:01;3.80;99.90
17762;DHT22;9005;48.838;10.112;2023-02-01T12:30:50;4.00;99.90
17762;DHT22;9005;48.838;10.112;2023-02-01T12:33:30;4.00;99.90
17762;DHT22;9005;48.838;10.112;2023-02-01T12:36:10;4.10;99.90
17762;DHT22;9005;48.838;10.112;2023-02-01T12:38:46;4.10;99.90
17762;DHT22;9005;48.838;10.112;2023-02-01T12:41:32;4.10;99.90
17762;DHT22;9005;48.838;10.112;2023-02-01T12:44:04;4.10;99.90
17762;DHT22;9005;48.838;10.112;2023-02-01T12:46:37;4.20;99.90
17762;DHT22;9005;48.838;10.112;2023-02-01T12:49:11;4.20;99.90
17762;DHT22;9005;48.838;10.112;2023-02-01T12:51:43;4.30;99.90
17762;DHT22;9005;48.838;10.112;2023-02-01T12:54:15;4.30;99.90
17762;DHT22;9005;48.838;10.112;2023-02-01T12:56:47;4.30;99.90
17762;DHT22;9005;48.838;10.112;2023-02-01T12:59:21;4.30;99.90
17762;DHT22;9005;48.838;10.112;2023-02-01T13:01:53;4.40;99.90
17762;DHT22;9005;48.838;10.112;2023-02-01T13:04:26;4.30;99.90
17762;DHT22;9005;48.838;10.112;2023-02-01T13:07:00;4.30;99.90
17762;DHT22;9005;48.838;10.112;2023-02-01T13:09:32;4.30;99.90
17762;DHT22;9005;48.838;10.112;2023-02-01T13:12:06;4.30;99.90
17762;DHT22;9005;48.838;10.112;2023-02-01T13:14:40;4.20;99.90
17762;DHT22;9005;48.838;10.112;2023-02-01T13:17:14;4.20;99.90
17762;DHT22;9005;48.838;10.112;2023-02-01T13:19:45;4.20;99.90
17762;DHT22;9005;48.838;10.112;2023-02-01T13:22:20;4.20;99.90
17762;DHT22;9005;48.838;10.112;2023-02-01T13:24:50;4.10;99.90
17762;DHT22;9005;48.838;10.112;2023-02-01T13:27:18;3.90;99.90
17762;DHT22;9005;48.838;10.112;2023-02-01T13:30:05;3.80;99.90
17762;DHT22;9005;48.838;10.112;2023-02-01T13:33:02;3.70;99.90
17762;DHT22;9005;48.838;10.112;2023-02-01T13:35:44;3.70;99.90
17762;DHT22;9005;48.838;10.112;2023-02-01T13:41:31;3.90;99.90
17762;DHT22;9005;48.838;10.112;2023-02-01T13:44:01;4.00;99.90
17762;DHT22;9005;48.838;10.112;2023-02-01T13:46:29;4.00;99.90
17762;DHT22;9005;48.838;10.112;2023-02-01T13:48:58;4.10;99.90
17762;DHT22;9005;48.838;10.112;2023-02-01T13:51:35;4.00;99.90
17762;DHT22;9005;48.838;10.112;2023-02-01T13:54:05;4.10;99.90
17762;DHT22;9005;48.838;10.112;2023-02-01T13:56:40;4.00;99.90
17762;DHT22;9005;48.838;10.112;2023-02-01T14:06:00;4.20;99.90
17762;DHT22;9005;48.838;10.112;2023-02-01T14:08:40;4.20;99.90
17762;DHT22;9005;48.838;10.112;2023-02-01T14:11:33;4.20;99.90
17762;DHT22;9005;48.838;10.112;2023-02-01T14:17:39;4.20;99.90
17762;DHT22;9005;48.838;10.112;2023-02-01T14:20:40;4.30;99.90
17762;DHT22;9005;48.838;10.112;2023-02-01T14:23:16;4.30;99.90
17762;DHT22;9005;48.838;10.112;2023-02-01T14:25:44;4.30;99.90
17762;DHT22;9005;48.838;10.112;2023-02-01T14:28:23;4.30;99.90
17762;DHT22;9005;48.838;10.112;2023-02-01T14:30:51;4.30;99.90
17762;DHT22;9005;48.838;10.112;2023-02-01T14:33:21;4.30;99.90
17762;DHT22;9005;48.838;10.112;2023-02-01T14:36:06;4.20;99.90
17762;DHT22;9005;48.838;10.112;2023-02-01T14:38:35;4.20;99.90
17762;DHT22;9005;48.838;10.112;2023-02-01T14:41:28;4.20;99.90
17762;DHT22;9005;48.838;10.112;2023-02-01T14:44:29;4.10;99.90
17762;DHT22;9005;48.838;10.112;2023-02-01T14:49:52;4.20;99.90
17762;DHT22;9005;48.838;10.112;2023-02-01T14:52:23;4.10;99.90
17762;DHT22;9005;48.838;10.112;2023-02-01T14:54:56;4.10;99.90
17762;DHT22;9005;48.838;10.112;2023-02-01T14:57:27;4.10;99.90
17762;DHT22;9005;48.838;10.112;2023-02-01T15:00:03;4.10;99.90
17762;DHT22;9005;48.838;10.112;2023-02-01T15:02:34;4.10;99.90
17762;DHT22;9005;48.838;10.112;2023-02-01T15:05:23;4.10;99.90
17762;DHT22;9005;48.838;10.112;2023-02-01T15:07:50;4.10;99.90
17762;DHT22;9005;48.838;10.112;2023-02-01T15:10:18;4.00;99.90
17762;DHT22;9005;48.838;10.112;2023-02-01T15:12:46;4.10;99.90
17762;DHT22;9005;48.838;10.112;2023-02-01T15:15:18;4.10;99.90
17762;DHT22;9005;48.838;10.112;2023-02-01T15:17:53;4.10;99.90
17762;DHT22;9005;48.838;10.112;2023-02-01T15:20:22;4.10;99.90
17762;DHT22;9005;48.838;10.112;2023-02-01T15:22:54;4.00;99.90
17762;DHT22;9005;48.838;10.112;2023-02-01T15:25:24;4.00;99.90
17762;DHT22;9005;48.838;10.112;2023-02-01T15:27:51;4.10;99.90
17762;DHT22;9005;48.838;10.112;2023-02-01T15:30:22;4.00;99.90
17762;DHT22;9005;48.838;10.112;2023-02-01T15:32:49;4.00;99.90
17762;DHT22;9005;48.838;10.112;2023-02-01T15:35:38;4.00;99.90
17762;DHT22;9005;48.838;10.112;2023-02-01T15:38:38;4.00;99.90
17762;DHT22;9005;48.838;10.112;2023-02-01T15:41:08;4.00;99.90
17762;DHT22;9005;48.838;10.112;2023-02-01T15:43:37;4.00;99.90
17762;DHT22;9005;48.838;10.112;2023-02-01T15:46:10;3.90;99.90
17762;DHT22;9005;48.838;10.112;2023-02-01T15:48:42;3.90;99.90
17762;DHT22;9005;48.838;10.112;2023-02-01T15:51:15;3.90;99.90
17762;DHT22;9005;48.838;10.112;2023-02-01T15:53:52;3.90;99.90
17762;DHT22;9005;48.838;10.112;2023-02-01T15:56:24;3.90;99.90
17762;DHT22;9005;48.838;10.112;2023-02-01T15:58:55;3.90;99.90
17762;DHT22;9005;48.838;10.112;2023-02-01T16:01:25;3.90;99.90
17762;DHT22;9005;48.838;10.112;2023-02-01T16:04:03;3.90;99.90
17762;DHT22;9005;48.838;10.112;2023-02-01T16:06:31;3.90;99.90
17762;DHT22;9005;48.838;10.112;2023-02-01T16:09:02;4.00;99.90
17762;DHT22;9005;48.838;10.112;2023-02-01T16:11:31;4.00;99.90
17762;DHT22;9005;48.838;10.112;2023-02-01T16:13:58;4.10;99.90
17762;DHT22;9005;48.838;10.112;2023-02-01T16:16:27;4.10;99.90
17762;DHT22;9005;48.838;10.112;2023-02-01T16:18:54;4.10;99.90
17762;DHT22;9005;48.838;10.112;2023-02-01T16:21:21;4.10;99.90
17762;DHT22;9005;48.838;10.112;2023-02-01T16:28:43;4.40;99.90
17762;DHT22;9005;48.838;10.112;2023-02-01T16:31:12;4.30;99.90
17762;DHT22;9005;48.838;10.112;2023-02-01T16:33:46;4.30;99.90
17762;DHT22;9005;48.838;10.112;2023-02-01T16:36:13;4.30;99.90
17762;DHT22;9005;48.838;10.112;2023-02-01T16:38:40;4.30;99.90
17762;DHT22;9005;48.838;10.112;2023-02-01T16:41:09;4.40;99.90
17762;DHT22;9005;48.838;10.112;2023-02-01T16:43:36;4.40;99.90